Time;durP1;ratioP1;P1;durP2;ratioP2;P2;SDS_P1;SDS_P2;PMS_P1;PMS_P2;Temp;Humidity;BMP_temperature;BMP_pressure;BME280_temperature;BME280_humidity;BME280_pressure;Samples;Min_cycle;Max_cycle;Signal;HPM_P1;HPM_P2
2022/11/14 00:01:37;;;;;;;53.00;31.48;;;;;;;7.03;80.54;100746.41;4147009;28;20049;-64
2022/11/14 00:03:58;;;;;;;56.35;34.17;;;;;;;7.06;80.68;100751.66;4131270;28;20049;-64
2022/11/14 00:06:20;;;;;;;41.72;26.48;;;;;;;7.10;81.11;100756.13;4132291;28;20046;-64
2022/11/14 00:08:41;;;;;;;36.13;24.38;;;;;;;7.16;80.94;100748.56;4142750;28;20112;-64
2022/11/14 00:11:03;;;;;;;38.13;23.50;;;;;;;7.21;80.87;100738.34;4141904;28;20041;-64
2022/11/14 00:13:25;;;;;;;31.58;19.92;;;;;;;7.23;80.82;100736.72;4147073;28;20053;-64
2022/11/14 00:15:53;;;;;;;35.35;22.23;;;;;;;7.29;80.82;100742.09;4146413;28;20052;-64
2022/11/14 00:18:14;;;;;;;33.78;20.55;;;;;;;7.25;80.57;100737.63;4144630;28;20093;-64
2022/11/14 00:20:35;;;;;;;36.63;22.60;;;;;;;7.12;80.89;100730.31;4147968;28;20126;-64
2022/11/14 00:22:57;;;;;;;37.80;23.40;;;;;;;7.16;81.06;100742.53;4147965;28;20492;-64
2022/11/14 00:25:18;;;;;;;33.60;21.25;;;;;;;7.20;81.08;100735.72;4147702;28;20060;-64
2022/11/14 00:27:40;;;;;;;40.95;24.70;;;;;;;7.13;80.94;100722.59;4146817;28;20503;-64
2022/11/14 00:30:01;;;;;;;34.75;21.42;;;;;;;7.16;80.97;100727.00;4141106;28;20415;-64
2022/11/14 00:32:24;;;;;;;41.33;24.70;;;;;;;7.23;81.00;100733.22;4143099;28;20068;-64
2022/11/14 00:34:46;;;;;;;40.70;24.10;;;;;;;7.26;81.29;100713.53;4146510;28;20042;-64
2022/11/14 00:37:07;;;;;;;46.85;24.48;;;;;;;7.36;80.54;100712.13;4138636;28;20168;-64
2022/11/14 00:39:28;;;;;;;41.63;25.20;;;;;;;7.37;80.84;100711.28;4147842;28;20049;-64
2022/11/14 00:41:50;;;;;;;38.60;23.80;;;;;;;7.36;80.38;100706.97;4139059;28;20415;-64
2022/11/14 00:44:12;;;;;;;38.47;24.02;;;;;;;7.36;80.86;100713.81;4144848;28;20046;-64
2022/11/14 00:46:33;;;;;;;38.92;26.45;;;;;;;7.46;80.78;100705.50;4147330;28;20519;-64
2022/11/14 00:48:56;;;;;;;43.17;25.45;;;;;;;7.49;80.75;100697.84;4147073;28;20404;-64
2022/11/14 00:51:18;;;;;;;46.60;27.17;;;;;;;7.44;80.50;100699.44;4146172;28;20046;-64
2022/11/14 00:53:39;;;;;;;43.28;25.25;;;;;;;7.43;80.47;100705.41;4146812;28;20038;-64
2022/11/14 00:56:00;;;;;;;44.63;26.02;;;;;;;7.41;80.71;100701.91;4143047;28;20065;-64
2022/11/14 00:58:22;;;;;;;35.72;21.85;;;;;;;7.43;80.82;100702.84;4147388;28;20042;-64
2022/11/14 01:00:43;;;;;;;47.35;27.35;;;;;;;7.45;80.93;100703.78;4147290;28;20046;-64
2022/11/14 01:03:05;;;;;;;51.42;29.70;;;;;;;7.49;80.50;100698.75;4131183;28;20053;-64
2022/11/14 01:05:28;;;;;;;42.42;26.48;;;;;;;7.49;80.50;100696.16;4139276;28;20050;-64
2022/11/14 01:07:50;;;;;;;50.28;30.50;;;;;;;7.50;80.42;100687.56;4135166;28;20053;-64
2022/11/14 01:10:11;;;;;;;45.20;27.83;;;;;;;7.57;79.75;100696.38;4143077;28;20042;-64
2022/11/14 01:12:33;;;;;;;48.33;30.35;;;;;;;7.58;79.99;100695.56;4147243;28;20076;-64
2022/11/14 01:14:54;;;;;;;50.65;30.23;;;;;;;7.64;79.56;100684.50;4145221;28;20072;-64
2022/11/14 01:17:16;;;;;;;53.90;31.92;;;;;;;7.75;78.86;100687.41;4139625;28;20113;-64
2022/11/14 01:19:37;;;;;;;47.92;28.50;;;;;;;7.61;79.64;100687.00;4147086;28;20041;-64
2022/11/14 01:22:00;;;;;;;48.92;29.83;;;;;;;7.61;79.43;100687.00;4131291;28;20043;-64
2022/11/14 01:24:26;;;;;;;47.72;27.95;;;;;;;7.62;79.59;100681.88;4131549;28;20042;-64
2022/11/14 01:26:48;;;;;;;47.45;28.88;;;;;;;7.55;79.79;100679.03;4145840;28;20068;-64
2022/11/14 01:29:09;;;;;;;46.50;27.85;;;;;;;7.52;79.52;100674.69;4141776;28;20101;-64
2022/11/14 01:31:31;;;;;;;46.15;26.63;;;;;;;7.52;79.82;100669.50;4145790;28;20054;-64
2022/11/14 01:33:53;;;;;;;44.40;26.77;;;;;;;7.58;79.41;100666.19;4145487;28;20132;-64
2022/11/14 01:36:15;;;;;;;41.78;25.27;;;;;;;7.56;79.17;100668.75;4147058;28;20040;-64
2022/11/14 01:38:38;;;;;;;42.28;25.67;;;;;;;7.55;79.34;100663.53;4147147;28;20046;-64
2022/11/14 01:41:00;;;;;;;41.88;26.13;;;;;;;7.50;79.29;100660.81;4147071;28;20539;-64
2022/11/14 01:43:29;;;;;;;40.75;25.58;;;;;;;7.54;79.31;100654.91;4145824;28;20038;-64
2022/11/14 01:45:54;;;;;;;39.38;24.20;;;;;;;7.47;79.80;100658.13;4148444;28;20404;-64
2022/11/14 01:48:21;;;;;;;42.03;26.23;;;;;;;7.55;79.78;100651.50;4139855;28;20046;-64
2022/11/14 01:50:42;;;;;;;41.90;25.90;;;;;;;7.54;79.46;100649.72;4148131;28;20076;-64
2022/11/14 01:53:04;;;;;;;37.03;23.40;;;;;;;7.50;79.28;100642.69;4147586;28;20050;-64
2022/11/14 01:55:26;;;;;;;38.50;24.05;;;;;;;7.47;79.51;100632.25;4148908;28;20069;-64
2022/11/14 01:57:49;;;;;;;41.33;24.98;;;;;;;7.48;80.32;100632.31;4149543;28;20088;-64
2022/11/14 02:00:12;;;;;;;36.30;23.33;;;;;;;7.45;80.15;100627.03;4149650;28;20492;-64
2022/11/14 02:02:34;;;;;;;36.83;21.70;;;;;;;7.53;80.10;100613.47;4149945;28;20108;-64
2022/11/14 02:05:00;;;;;;;37.72;25.63;;;;;;;7.47;80.29;100609.84;4149111;28;20141;-64
2022/11/14 02:07:24;;;;;;;45.83;25.67;;;;;;;7.43;80.13;100607.13;4149925;28;20050;-64
2022/11/14 02:09:48;;;;;;;39.63;23.98;;;;;;;7.47;80.67;100604.69;4147010;28;20510;-64
2022/11/14 02:12:14;;;;;;;31.58;19.80;;;;;;;7.47;80.55;100608.97;4146641;28;20053;-64
2022/11/14 02:14:37;;;;;;;35.03;21.55;;;;;;;7.48;80.33;100605.56;4146955;28;20044;-64
2022/11/14 02:16:59;;;;;;;37.60;23.52;;;;;;;7.56;80.55;100606.66;4135645;28;20070;-64
2022/11/14 02:19:42;;;;;;;40.58;21.88;;;;;;;7.53;80.14;100611.75;4147549;28;20432;-64
2022/11/14 02:22:05;;;;;;;35.78;21.80;;;;;;;7.46;80.25;100608.13;4142358;28;20041;-64
2022/11/14 02:24:26;;;;;;;36.40;23.77;;;;;;;7.41;80.71;100604.50;4147083;28;20113;-64
2022/11/14 02:26:47;;;;;;;40.25;24.40;;;;;;;7.46;80.54;100599.47;4147476;28;20041;-64
2022/11/14 02:29:11;;;;;;;49.22;26.75;;;;;;;7.55;80.39;100594.56;4144186;28;20492;-64
2022/11/14 02:31:32;;;;;;;37.33;23.55;;;;;;;7.42;79.96;100595.91;4149723;28;20454;-64
2022/11/14 02:33:53;;;;;;;36.78;24.77;;;;;;;7.47;80.41;100599.50;4147719;28;20040;-64
2022/11/14 02:36:15;;;;;;;38.17;23.48;;;;;;;7.44;80.09;100602.00;4148923;28;20038;-64
2022/11/14 02:38:37;;;;;;;37.38;23.00;;;;;;;7.41;80.33;100583.81;4149506;28;20056;-64
2022/11/14 02:40:59;;;;;;;37.33;22.10;;;;;;;7.45;80.10;100588.25;4148266;28;20034;-64
2022/11/14 02:43:21;;;;;;;34.65;20.88;;;;;;;7.50;80.19;100588.38;4148681;28;20046;-64
2022/11/14 02:45:43;;;;;;;36.58;22.02;;;;;;;7.49;80.38;100576.25;4149473;28;20081;-64
2022/11/14 02:48:05;;;;;;;35.88;23.58;;;;;;;7.55;80.01;100585.91;4147725;28;20044;-64
2022/11/14 02:50:26;;;;;;;32.78;20.50;;;;;;;7.45;80.16;100577.91;4144997;28;20085;-64
2022/11/14 02:52:48;;;;;;;35.60;21.20;;;;;;;7.41;80.49;100582.94;4149118;28;20042;-64
2022/11/14 02:55:11;;;;;;;35.10;22.85;;;;;;;7.45;80.16;100585.66;4139300;28;20045;-64
2022/11/14 02:57:32;;;;;;;30.42;18.80;;;;;;;7.45;79.97;100582.22;4146381;28;20473;-64
2022/11/14 02:59:54;;;;;;;28.17;18.65;;;;;;;7.46;80.11;100584.84;4149042;28;20042;-64
2022/11/14 03:02:15;;;;;;;34.78;21.85;;;;;;;7.49;79.68;100574.56;4149192;28;20096;-64
2022/11/14 03:04:37;;;;;;;33.10;21.38;;;;;;;7.44;79.67;100576.13;4144398;28;20485;-64
2022/11/14 03:06:58;;;;;;;31.27;19.77;;;;;;;7.46;79.89;100574.50;4147067;28;20087;-64
2022/11/14 03:09:20;;;;;;;31.45;21.63;;;;;;;7.50;80.00;100568.56;4143394;28;20062;-64
2022/11/14 03:11:42;;;;;;;35.88;22.45;;;;;;;7.52;79.28;100566.03;4148712;28;20046;-64
2022/11/14 03:14:04;;;;;;;30.08;20.13;;;;;;;7.48;79.62;100566.78;4147888;28;20041;-64
2022/11/14 03:16:25;;;;;;;36.22;22.35;;;;;;;7.49;79.75;100571.09;4145837;28;20076;-64
2022/11/14 03:18:47;;;;;;;29.73;19.17;;;;;;;7.52;79.64;100568.63;4148477;28;20036;-64
2022/11/14 03:21:10;;;;;;;27.95;18.98;;;;;;;7.46;79.82;100561.56;4145601;28;20141;-64
2022/11/14 03:23:32;;;;;;;30.02;19.98;;;;;;;7.46;79.58;100560.66;4145640;28;20140;-64
2022/11/14 03:25:54;;;;;;;30.15;20.95;;;;;;;7.47;79.46;100557.25;4132537;28;20519;-63
2022/11/14 03:28:17;;;;;;;28.33;18.80;;;;;;;7.47;79.23;100552.06;4132851;28;20042;-63
2022/11/14 03:30:38;;;;;;;24.75;16.77;;;;;;;7.42;79.50;100558.84;4138585;28;20037;-64
2022/11/14 03:33:00;;;;;;;22.67;16.40;;;;;;;7.40;79.58;100563.06;4142071;28;20504;-64
2022/11/14 03:35:21;;;;;;;26.50;18.05;;;;;;;7.42;79.34;100566.59;4146466;28;20141;-64
2022/11/14 03:37:42;;;;;;;24.08;17.42;;;;;;;7.49;78.61;100569.41;4147312;28;20129;-63
2022/11/14 03:40:05;;;;;;;21.88;15.68;;;;;;;7.46;78.72;100571.00;4147338;28;20042;-64
2022/11/14 03:42:26;;;;;;;22.42;15.00;;;;;;;7.37;79.29;100571.63;4148534;28;20046;-64
2022/11/14 03:44:49;;;;;;;22.63;15.82;;;;;;;7.46;78.83;100573.59;4147824;28;20054;-64
2022/11/14 03:47:11;;;;;;;21.35;15.48;;;;;;;7.32;78.63;100562.88;4148472;28;20049;-64
2022/11/14 03:49:32;;;;;;;26.92;17.88;;;;;;;7.27;78.64;100567.00;4148560;28;20050;-64
2022/11/14 03:51:53;;;;;;;26.83;18.50;;;;;;;7.25;78.15;100568.69;4148166;28;20045;-64
2022/11/14 03:54:15;;;;;;;24.33;16.75;;;;;;;7.19;77.91;100566.78;4140764;28;20038;-64
2022/11/14 03:56:36;;;;;;;25.63;17.48;;;;;;;7.22;78.11;100573.78;4147914;28;20419;-64
2022/11/14 03:58:58;;;;;;;25.42;18.25;;;;;;;7.21;77.39;100565.13;4133460;28;20046;-64
2022/11/14 04:01:21;;;;;;;24.38;15.40;;;;;;;7.15;77.80;100564.94;4143374;28;20041;-64
2022/11/14 04:03:42;;;;;;;25.58;17.90;;;;;;;7.15;77.86;100568.44;4146381;28;20411;-64
2022/11/14 04:06:04;;;;;;;24.63;17.10;;;;;;;7.31;77.74;100566.28;4147966;28;20089;-64
2022/11/14 04:08:25;;;;;;;25.55;17.23;;;;;;;7.13;77.10;100561.44;4143156;28;20034;-64
2022/11/14 04:10:47;;;;;;;26.92;18.15;;;;;;;7.12;76.63;100562.28;4147653;28;20041;-64
2022/11/14 04:13:09;;;;;;;25.23;17.80;;;;;;;6.87;77.47;100553.78;4137960;28;20139;-64
2022/11/14 04:15:30;;;;;;;27.17;18.25;;;;;;;6.99;77.30;100540.34;4147550;28;20079;-63
2022/11/14 04:17:52;;;;;;;24.50;17.80;;;;;;;7.04;77.01;100543.97;4144034;28;20046;-64
2022/11/14 04:20:14;;;;;;;27.92;18.40;;;;;;;6.96;77.05;100543.69;4135209;28;20040;-64
2022/11/14 04:22:36;;;;;;;25.35;18.42;;;;;;;6.93;76.91;100543.63;4147764;28;20065;-64
2022/11/14 04:24:57;;;;;;;24.38;18.30;;;;;;;6.95;75.99;100535.91;4147011;28;20041;-64
2022/11/14 04:27:18;;;;;;;22.92;17.02;;;;;;;6.77;76.99;100539.69;4145912;28;20038;-64
2022/11/14 04:29:40;;;;;;;20.35;15.70;;;;;;;6.79;76.59;100539.72;4147725;28;20615;-64
2022/11/14 04:32:02;;;;;;;23.00;16.83;;;;;;;6.87;76.51;100537.41;4145145;28;20049;-64
2022/11/14 04:34:24;;;;;;;22.80;16.20;;;;;;;6.84;76.01;100548.50;4141189;28;20530;-64
2022/11/14 04:36:46;;;;;;;22.15;15.77;;;;;;;6.68;76.57;100541.13;4147345;28;20451;-64
2022/11/14 04:39:08;;;;;;;22.80;17.05;;;;;;;6.61;77.46;100545.22;4147605;28;20121;-64
2022/11/14 04:41:29;;;;;;;21.08;15.75;;;;;;;6.65;76.63;100539.31;4145574;28;20050;-64
2022/11/14 04:43:50;;;;;;;23.10;17.30;;;;;;;6.64;76.50;100538.44;4145447;28;20046;-64
2022/11/14 04:46:12;;;;;;;25.20;17.63;;;;;;;6.72;76.49;100540.41;4143489;28;20472;-64
2022/11/14 04:48:33;;;;;;;22.58;16.27;;;;;;;6.64;76.42;100543.63;4146417;28;20056;-64
2022/11/14 04:50:56;;;;;;;25.42;17.02;;;;;;;6.55;77.18;100530.38;4141019;28;20528;-64
2022/11/14 04:53:18;;;;;;;23.08;17.02;;;;;;;6.72;76.31;100537.81;4142093;28;20045;-66
2022/11/14 04:55:39;;;;;;;22.67;15.73;;;;;;;6.74;76.42;100534.44;4147477;28;20044;-64
2022/11/14 04:58:01;;;;;;;22.38;16.40;;;;;;;6.59;76.40;100532.25;4145149;28;20046;-64
2022/11/14 05:00:23;;;;;;;25.25;16.77;;;;;;;6.75;76.51;100533.59;4143798;28;20515;-64
2022/11/14 05:02:44;;;;;;;23.40;16.05;;;;;;;6.58;76.45;100535.66;4146263;28;20061;-64
2022/11/14 05:05:06;;;;;;;23.20;15.93;;;;;;;6.53;77.05;100528.63;4146846;28;20103;-64
2022/11/14 05:07:29;;;;;;;25.40;16.92;;;;;;;6.55;77.12;100535.56;4146450;28;20038;-64
2022/11/14 05:09:50;;;;;;;23.55;15.65;;;;;;;6.59;77.38;100532.25;4147418;28;20056;-64
2022/11/14 05:12:12;;;;;;;25.80;17.02;;;;;;;6.70;77.00;100523.94;4142654;28;20444;-63
2022/11/14 05:14:33;;;;;;;24.65;15.70;;;;;;;6.65;77.21;100521.22;4144614;28;20054;-63
2022/11/14 05:16:54;;;;;;;23.73;16.55;;;;;;;6.71;76.90;100528.31;4147570;28;20064;-63
2022/11/14 05:19:16;;;;;;;27.88;18.92;;;;;;;6.71;76.54;100520.53;4139376;28;20046;-64
2022/11/14 05:21:37;;;;;;;27.65;18.80;;;;;;;6.74;76.79;100520.63;4134449;28;20053;-64
2022/11/14 05:24:00;;;;;;;27.60;18.17;;;;;;;6.89;76.03;100523.72;4133608;28;20047;-64
2022/11/14 05:26:22;;;;;;;29.77;17.58;;;;;;;6.56;76.74;100526.13;4138529;28;20088;-64
2022/11/14 05:28:43;;;;;;;22.45;15.60;;;;;;;6.57;77.42;100527.84;4149446;28;20041;-64
2022/11/14 05:31:07;;;;;;;26.73;16.27;;;;;;;6.60;77.65;100528.84;4144495;28;20428;-64
2022/11/14 05:33:28;;;;;;;28.92;17.80;;;;;;;6.74;76.84;100530.97;4149057;28;20065;-64
2022/11/14 05:35:50;;;;;;;29.85;19.40;;;;;;;6.68;77.48;100530.78;4147329;28;20558;-64
2022/11/14 05:38:11;;;;;;;25.92;18.60;;;;;;;6.59;77.55;100532.25;4149280;28;20038;-64
2022/11/14 05:40:34;;;;;;;28.90;17.38;;;;;;;6.55;77.39;100534.69;4142235;28;20129;-64
2022/11/14 05:42:56;;;;;;;30.55;20.35;;;;;;;6.71;76.64;100520.53;4150514;28;20125;-63
2022/11/14 05:45:17;;;;;;;27.50;16.95;;;;;;;6.59;77.10;100511.59;4150112;28;20046;-64
2022/11/14 05:47:39;;;;;;;27.65;18.40;;;;;;;6.70;77.14;100521.38;4148975;28;20052;-64
2022/11/14 05:50:00;;;;;;;30.45;17.83;;;;;;;6.78;77.24;100509.56;4149169;28;20041;-64
2022/11/14 05:52:21;;;;;;;23.52;15.70;;;;;;;6.63;77.49;100521.19;4149746;28;20046;-64
2022/11/14 05:54:43;;;;;;;29.38;18.25;;;;;;;6.80;77.34;100507.91;4149001;28;20072;-64
2022/11/14 05:57:06;;;;;;;25.85;16.75;;;;;;;6.64;77.05;100509.13;4147418;28;20076;-64
2022/11/14 05:59:27;;;;;;;26.23;16.90;;;;;;;6.77;77.04;100500.94;4148190;28;20050;-64
2022/11/14 06:01:49;;;;;;;27.75;17.13;;;;;;;6.70;77.37;100501.59;4141706;28;20046;-64
2022/11/14 06:04:13;;;;;;;25.48;16.02;;;;;;;6.71;77.77;100505.03;4149199;28;20046;-63
2022/11/14 06:06:35;;;;;;;27.33;16.65;;;;;;;6.84;77.11;100489.09;4148251;28;20129;-63
2022/11/14 06:08:57;;;;;;;23.70;15.60;;;;;;;6.74;77.23;100497.38;4149832;28;20088;-63
2022/11/14 06:11:20;;;;;;;25.88;16.58;;;;;;;6.80;77.27;100495.88;4146654;28;20044;-64
2022/11/14 06:13:44;;;;;;;22.88;13.73;;;;;;;6.84;77.42;100483.91;4148671;28;20042;-63
2022/11/14 06:16:07;;;;;;;26.88;15.82;;;;;;;6.76;77.24;100487.97;4137859;28;20492;-63
2022/11/14 06:18:29;;;;;;;21.73;13.52;;;;;;;6.76;77.17;100493.13;4149734;28;20030;-63
2022/11/14 06:20:51;;;;;;;27.23;16.13;;;;;;;6.73;77.74;100487.88;4141260;28;20030;-63
2022/11/14 06:23:12;;;;;;;25.20;15.75;;;;;;;6.74;77.20;100498.25;4149473;28;20048;-64
2022/11/14 06:25:34;;;;;;;24.20;14.07;;;;;;;6.71;77.21;100484.38;4148512;28;20053;-64
2022/11/14 06:27:56;;;;;;;27.92;15.77;;;;;;;6.81;76.93;100486.41;4146760;28;20048;-64
2022/11/14 06:30:19;;;;;;;24.88;14.38;;;;;;;6.72;76.92;100475.81;4147915;28;20058;-64
2022/11/14 06:32:40;;;;;;;26.25;15.90;;;;;;;6.66;77.66;100479.09;4151894;28;20045;-64
2022/11/14 06:35:01;;;;;;;23.40;13.73;;;;;;;6.65;77.53;100485.06;4146734;28;20048;-64
2022/11/14 06:37:23;;;;;;;25.42;14.27;;;;;;;6.79;76.89;100495.81;4133275;28;20050;-64
2022/11/14 06:39:44;;;;;;;23.02;13.85;;;;;;;6.73;77.37;100493.94;4144220;28;20148;-64
2022/11/14 06:42:06;;;;;;;29.42;15.25;;;;;;;6.79;77.04;100486.38;4147223;28;20045;-64
2022/11/14 06:44:28;;;;;;;24.88;14.40;;;;;;;6.70;77.29;100485.19;4147420;28;20042;-64
2022/11/14 06:46:53;;;;;;;27.75;15.02;;;;;;;6.69;77.65;100486.03;4141208;28;20033;-65
2022/11/14 06:49:14;;;;;;;24.17;14.05;;;;;;;6.59;77.72;100503.84;4147190;28;20038;-64
2022/11/14 06:51:36;;;;;;;25.67;14.82;;;;;;;6.55;77.69;100499.41;4149036;28;20467;-64
2022/11/14 06:53:57;;;;;;;24.20;15.20;;;;;;;6.67;77.79;100493.72;4142838;28;20046;-65
2022/11/14 06:56:20;;;;;;;24.38;15.50;;;;;;;6.68;77.80;100494.63;4147585;28;20053;-64
2022/11/14 06:58:43;;;;;;;20.35;13.15;;;;;;;6.58;77.88;100506.38;4147953;28;20492;-64
2022/11/14 07:01:05;;;;;;;19.73;11.70;;;;;;;6.61;77.84;100497.03;4133197;28;20042;-65
2022/11/14 07:03:27;;;;;;;20.58;12.70;;;;;;;6.55;77.79;100491.66;4143479;28;20408;-65
2022/11/14 07:05:49;;;;;;;22.58;13.98;;;;;;;6.71;77.70;100498.16;4147003;28;20045;-64
2022/11/14 07:08:10;;;;;;;17.33;11.65;;;;;;;6.70;77.76;100483.50;4134964;28;20038;-64
2022/11/14 07:10:32;;;;;;;18.40;12.48;;;;;;;6.64;77.50;100479.03;4145113;28;20042;-65
2022/11/14 07:12:53;;;;;;;19.50;12.27;;;;;;;6.68;77.30;100479.13;4143973;28;20080;-66
2022/11/14 07:15:15;;;;;;;17.90;12.30;;;;;;;6.65;77.12;100495.41;4133451;28;20388;-66
2022/11/14 07:17:36;;;;;;;17.90;11.93;;;;;;;6.68;76.99;100499.78;4146747;28;20064;-66
2022/11/14 07:19:59;;;;;;;17.83;11.65;;;;;;;6.69;77.21;100498.94;4147421;28;20121;-66
2022/11/14 07:22:21;;;;;;;17.73;11.63;;;;;;;6.77;76.68;100511.25;4148881;28;20041;-66
2022/11/14 07:24:42;;;;;;;19.67;13.05;;;;;;;6.77;76.80;100508.69;4133626;28;20108;-66
2022/11/14 07:27:07;;;;;;;18.10;12.88;;;;;;;6.78;76.26;100513.03;4142544;28;20092;-65
2022/11/14 07:29:28;;;;;;;18.15;12.40;;;;;;;6.80;76.67;100507.91;4134283;28;20580;-66
2022/11/14 07:31:50;;;;;;;16.88;11.30;;;;;;;6.81;76.17;100507.06;4136140;28;20088;-66
2022/11/14 07:34:12;;;;;;;15.65;10.95;;;;;;;6.76;76.36;100506.94;4141923;28;20060;-66
2022/11/14 07:36:35;;;;;;;17.77;12.98;;;;;;;6.64;76.32;100510.03;4146919;28;20294;-66
2022/11/14 07:38:57;;;;;;;16.30;11.68;;;;;;;6.74;76.11;100500.84;4141623;28;20037;-66
2022/11/14 07:41:18;;;;;;;17.58;13.35;;;;;;;6.79;76.13;100500.97;4148635;28;20046;-66
2022/11/14 07:43:40;;;;;;;17.50;12.52;;;;;;;6.87;76.28;100507.25;4131413;28;20404;-66
2022/11/14 07:46:04;;;;;;;18.75;14.05;;;;;;;7.09;75.19;100513.94;4135462;28;20125;-66
2022/11/14 07:48:25;;;;;;;15.82;12.38;;;;;;;6.91;74.90;100528.91;4148181;28;20096;-66
2022/11/14 07:50:47;;;;;;;18.27;12.73;;;;;;;6.94;75.07;100523.84;4148478;28;20484;-66
2022/11/14 07:53:10;;;;;;;18.63;11.93;;;;;;;6.95;75.26;100531.63;4146210;28;20076;-66
2022/11/14 07:55:31;;;;;;;18.35;12.15;;;;;;;6.91;75.36;100534.09;4137884;28;20046;-66
2022/11/14 07:57:54;;;;;;;17.58;12.77;;;;;;;6.82;75.75;100532.09;4145140;28;20037;-66
2022/11/14 08:00:16;;;;;;;15.55;12.00;;;;;;;6.80;76.06;100526.88;4141634;28;20037;-66
2022/11/14 08:02:37;;;;;;;15.70;11.25;;;;;;;6.78;75.83;100532.81;4142192;28;20129;-66
2022/11/14 08:05:00;;;;;;;17.02;11.93;;;;;;;6.78;75.98;100519.91;4147141;28;20050;-66
2022/11/14 08:07:21;;;;;;;18.13;13.18;;;;;;;6.73;76.39;100509.44;4148261;28;20037;-66
2022/11/14 08:09:44;;;;;;;16.15;12.95;;;;;;;6.89;75.42;100510.78;4148127;28;20046;-66
2022/11/14 08:12:06;;;;;;;17.38;12.38;;;;;;;6.95;76.07;100508.38;4147219;28;20156;-66
2022/11/14 08:14:27;;;;;;;20.75;13.80;;;;;;;7.12;75.19;100507.97;4142982;28;20045;-65
2022/11/14 08:16:50;;;;;;;16.25;12.70;;;;;;;7.12;75.22;100513.16;4142852;28;20470;-65
2022/11/14 08:19:11;;;;;;;18.45;14.07;;;;;;;7.21;74.93;100518.56;4144819;28;20488;-67
2022/11/14 08:21:32;;;;;;;17.63;13.82;;;;;;;7.26;74.61;100511.84;4135114;28;20147;-66
2022/11/14 08:23:54;;;;;;;17.45;12.68;;;;;;;7.24;74.02;100508.34;4147110;28;20033;-66
2022/11/14 08:26:17;;;;;;;16.20;12.90;;;;;;;7.28;74.08;100515.34;4147457;28;20050;-66
2022/11/14 08:28:38;;;;;;;18.52;13.10;;;;;;;7.37;73.95;100508.69;4135939;28;20034;-66
2022/11/14 08:31:01;;;;;;;21.48;16.95;;;;;;;7.42;73.56;100501.94;4146467;28;20646;-66
2022/11/14 08:33:22;;;;;;;19.60;15.43;;;;;;;7.49;72.90;100496.97;4141450;28;20033;-67
2022/11/14 08:35:43;;;;;;;25.17;18.15;;;;;;;7.42;73.12;100494.19;4145436;28;20122;-66
2022/11/14 08:38:05;;;;;;;20.48;14.90;;;;;;;7.40;73.20;100493.25;4131767;28;20050;-66
2022/11/14 08:40:26;;;;;;;19.33;14.88;;;;;;;7.45;73.78;100483.91;4142604;28;20048;-66
2022/11/14 08:42:49;;;;;;;19.30;13.55;;;;;;;7.48;73.14;100490.03;4141837;28;20042;-66
2022/11/14 08:45:11;;;;;;;16.17;11.88;;;;;;;7.47;73.76;100505.50;4131339;28;20547;-66
2022/11/14 08:47:32;;;;;;;19.17;13.25;;;;;;;7.51;74.11;100508.22;4139532;28;20056;-66
2022/11/14 08:49:54;;;;;;;16.88;12.75;;;;;;;7.55;74.02;100506.63;4144003;28;20463;-66
2022/11/14 08:52:15;;;;;;;17.17;13.88;;;;;;;7.74;73.02;100507.97;4146875;28;20044;-66
2022/11/14 08:54:37;;;;;;;17.77;12.50;;;;;;;7.58;73.17;100506.69;4138649;28;20042;-66
2022/11/14 08:56:58;;;;;;;19.83;13.77;;;;;;;7.61;73.76;100509.34;4149088;28;20046;-66
2022/11/14 08:59:21;;;;;;;18.95;13.88;;;;;;;7.64;73.81;100506.84;4147105;28;20056;-66
2022/11/14 09:01:44;;;;;;;17.88;11.80;;;;;;;7.64;74.10;100504.25;4150890;28;20092;-66
2022/11/14 09:04:07;;;;;;;16.25;12.00;;;;;;;7.64;73.79;100504.25;4143812;28;20049;-68
2022/11/14 09:06:29;;;;;;;19.02;13.55;;;;;;;7.77;73.16;100500.28;4148084;28;20551;-68
2022/11/14 09:08:50;;;;;;;15.65;11.80;;;;;;;7.67;73.57;100498.31;4136979;28;20046;-68
2022/11/14 09:11:12;;;;;;;17.92;12.70;;;;;;;7.71;73.68;100494.06;4140264;28;20121;-68
2022/11/14 09:13:39;;;;;;;15.20;11.80;;;;;;;7.71;73.69;100499.25;4144765;28;20040;-68
2022/11/14 09:16:02;;;;;;;16.98;12.65;;;;;;;7.74;73.57;100499.31;4139490;28;20037;-68
2022/11/14 09:18:23;;;;;;;19.98;11.85;;;;;;;7.73;73.86;100501.03;4151467;28;20037;-68
2022/11/14 09:20:45;;;;;;;15.00;10.40;;;;;;;7.76;73.96;100500.25;4151729;28;20054;-68
2022/11/14 09:23:07;;;;;;;16.23;12.45;;;;;;;7.83;73.70;100504.75;4151116;28;20112;-68
2022/11/14 09:25:29;;;;;;;21.00;15.60;;;;;;;7.85;73.67;100495.31;4164466;28;20561;-68
2022/11/14 09:27:50;;;;;;;16.30;13.00;;;;;;;7.91;73.04;100492.00;4147577;28;20129;-71
2022/11/14 09:30:13;;;;;;;15.85;12.18;;;;;;;7.88;73.20;100492.78;4146938;28;20133;-68
2022/11/14 09:32:36;;;;;;;16.08;12.25;;;;;;;7.86;73.54;100489.31;4147440;28;20144;-68
2022/11/14 09:34:57;;;;;;;17.13;12.65;;;;;;;7.85;73.02;100493.59;4165128;28;20126;-67
2022/11/14 09:37:18;;;;;;;17.70;12.82;;;;;;;7.94;73.51;100495.53;4148416;28;20072;-67
2022/11/14 09:39:40;;;;;;;17.60;12.13;;;;;;;7.91;73.49;100498.03;4147719;28;20046;-70
2022/11/14 09:42:16;;;;;;;14.80;10.63;;;;;;;7.95;73.58;100496.44;4154293;28;20462;-68
2022/11/14 09:44:52;;;;;;;14.63;10.88;;;;;;;8.03;73.39;100489.72;4136058;28;20412;-69
2022/11/14 09:47:16;;;;;;;15.15;11.48;;;;;;;8.00;73.42;100481.88;4145642;28;20074;-69
2022/11/14 09:49:45;;;;;;;15.05;11.10;;;;;;;8.02;72.93;100487.97;4146220;28;20038;-69
2022/11/14 09:52:15;;;;;;;14.02;10.80;;;;;;;8.04;72.98;100487.19;4146881;28;20034;-69
2022/11/14 09:54:44;;;;;;;19.05;12.23;;;;;;;8.12;73.15;100494.25;4148260;28;20042;-75
2022/11/14 09:57:14;;;;;;;15.45;11.18;;;;;;;8.13;73.05;100489.13;4156121;28;20216;-66
2022/11/14 09:59:35;;;;;;;16.60;12.50;;;;;;;8.12;73.27;100494.25;4145148;28;20089;-71
2022/11/14 10:02:01;;;;;;;16.60;12.15;;;;;;;8.11;72.82;100489.94;4148565;28;20045;-71
2022/11/14 10:04:32;;;;;;;18.88;11.15;;;;;;;8.16;73.08;100489.19;4141756;28;20076;-68
2022/11/14 10:07:07;;;;;;;17.60;12.52;;;;;;;8.27;73.03;100484.28;4144958;28;20411;-68
2022/11/14 10:09:49;;;;;;;16.02;11.75;;;;;;;8.34;73.23;100474.94;4147173;28;20096;-67
2022/11/14 10:12:17;;;;;;;16.00;12.20;;;;;;;8.49;72.88;100483.09;4148938;28;20041;-70
2022/11/14 10:14:55;;;;;;;15.15;10.75;;;;;;;8.58;72.56;100474.66;4147908;28;20034;-69
2022/11/14 10:17:34;;;;;;;17.40;12.15;;;;;;;8.63;72.03;100475.63;4147298;28;20034;-68
2022/11/14 10:20:02;;;;;;;16.23;10.25;;;;;;;8.63;71.88;100475.63;4148916;28;20464;-68
2022/11/14 10:22:41;;;;;;;16.23;11.82;;;;;;;8.70;71.74;100464.56;4149061;28;20129;-75
2022/11/14 10:25:18;;;;;;;15.50;12.30;;;;;;;8.79;71.49;100465.59;4138889;28;20046;-74
2022/11/14 10:27:45;;;;;;;14.43;11.00;;;;;;;8.88;71.26;100463.22;4144321;28;20143;-71
2022/11/14 10:30:15;;;;;;;15.43;11.05;;;;;;;8.88;71.21;100465.81;4138827;28;20072;-65
2022/11/14 10:33:07;;;;;;;16.83;11.07;;;;;;;9.05;71.33;100464.44;4146035;28;20518;-66
2022/11/14 10:35:35;;;;;;;16.17;12.13;;;;;;;9.12;71.13;100456.78;4143619;28;20050;-65
2022/11/14 10:38:05;;;;;;;15.15;10.82;;;;;;;9.11;70.96;100452.44;4140967;28;20037;-64
2022/11/14 10:40:34;;;;;;;18.15;9.98;;;;;;;9.15;71.78;100454.25;4144117;28;20110;-64
2022/11/14 10:43:02;;;;;;;16.85;12.48;;;;;;;9.34;71.06;100442.50;4137562;28;20045;-65
2022/11/14 10:45:27;;;;;;;14.65;11.68;;;;;;;9.36;70.88;100439.09;4141813;28;20054;-64
2022/11/14 10:47:54;;;;;;;15.13;10.63;;;;;;;9.30;70.88;100438.09;4142404;28;20461;-66
2022/11/14 10:50:19;;;;;;;14.55;9.73;;;;;;;9.41;71.01;100431.41;4143549;28;20042;-69
2022/11/14 10:52:44;;;;;;;14.30;10.67;;;;;;;9.50;70.87;100428.97;4147771;28;20062;-69
2022/11/14 10:55:14;;;;;;;14.10;10.57;;;;;;;9.65;70.18;100423.19;4142333;28;20347;-68
2022/11/14 10:57:35;;;;;;;17.02;10.80;;;;;;;9.75;69.67;100417.31;4138693;28;20030;-68